EW9240 Weather Reports


Display with metric or nautical units.
time (UTC)temp
F
wind
direction
speed
MPH
gust
MPH
rain 1hr
in
rain 24hr
in
rain mn
in
humidity
%
barometer
mb
20230208193017 47 291 0.0 1.0 0.00 0.00 0.00 76 1032.4
20230208191520 48 271 0.0 3.0 0.00 0.00 0.00 75 1032.3
20230208190014 48 130 0.0 3.0 0.00 0.00 0.00 78 1032.4
20230208184513 47 120 0.0 3.0 0.00 0.00 0.00 80 1032.4
20230208183007 46 155 0.0 3.0 0.00 0.00 0.00 81 1032.5
20230208181503 45 127 0.0 4.0 0.00 0.00 0.00 83 1032.4
20230208174559 44 214 0.0 1.0 0.00 0.00 0.00 85 1032.4
20230208173055 43 207 0.0 2.0 0.00 0.00 0.00 86 1032.6
20230208171555 41 155 0.0 0.0 0.00 0.00 0.00 90 1032.5
20230208170055 40 129 0.0 0.0 0.00 0.00 0.00 92 1032.3
20230208164556 38 96 0.0 1.0 0.00 0.00 0.00 93 1032.1
20230208163047 36 287 0.0 0.0 0.00 0.00 0.00 93 1032.0
20230208161546 35 287 0.0 0.0 0.00 0.00 0.00 92 1031.7
20230208160044 35 288 0.0 0.0 0.00 0.00 0.00 92 1031.6
20230208154540 0 0.0 0.0 0.00 0.00 0.00 1031.4
20230208153042 0 0.0 0.0 0.00 0.00 0.00 1031.3
20230208151534 0 0.0 0.0 0.00 0.00 0.00 1031.3
20230208150042 0 0.0 0.0 0.00 0.00 0.00 1031.2
20230208144526 0 0.0 0.0 0.00 0.00 0.00 1031.1
20230208143021 0 0.0 0.0 0.00 0.00 0.00 1031.1
20230208141528 0 0.0 0.0 0.00 0.00 0.00 1030.9
20230208140013 0 0.0 0.0 0.00 0.00 0.00 1030.9
20230208134509 0 0.0 0.0 0.00 0.00 0.00 1031.0
20230208133007 0 0.0 0.0 0.00 0.00 0.00 1030.9
20230208131601 0 0.0 0.0 0.00 0.00 0.00 1030.9
20230208130056 0 288 0.0 3.0 0.00 0.00 0.00 1030.7
20230208124556 40 274 0.0 4.0 0.00 0.00 0.00 87 1030.6
20230208123054 40 252 0.0 3.0 0.00 0.00 0.00 86 1030.6
20230208121556 40 180 0.0 1.0 0.00 0.00 0.00 86 1030.5
20230208120049 41 248 0.0 3.0 0.00 0.00 0.00 86 1030.3
20230208113056 40 253 1.0 2.0 0.00 0.00 0.00 88 1030.1
20230208111545 40 252 0.0 2.0 0.00 0.00 0.00 88 1030.1
20230208110045 40 257 0.0 2.0 0.00 0.00 0.00 87 1029.9
20230208104544 41 251 0.0 3.0 0.00 0.00 0.00 87 1029.7
20230208103047 41 257 2.0 5.0 0.00 0.00 0.00 87 1029.7
20230208101539 41 262 1.0 3.0 0.00 0.00 0.00 87 1029.6
20230208100035 41 266 1.0 4.0 0.00 0.00 0.00 86 1029.5
20230208094530 41 271 1.0 6.0 0.00 0.00 0.00 86 1029.1
20230208093030 41 269 2.0 8.0 0.00 0.00 0.00 86 1029.0
20230208091528 41 261 0.0 4.0 0.00 0.00 0.00 86 1029.1
20230208090035 41 252 0.0 2.0 0.00 0.00 0.00 86 1029.2
20230208084529 42 263 0.0 2.0 0.00 0.00 0.00 85 1029.2
20230208083022 42 247 0.0 4.0 0.00 0.00 0.00 85 1029.0
20230208081532 42 244 1.0 5.0 0.00 0.00 0.00 85 1029.1
20230208080018 42 255 1.0 7.0 0.00 0.00 0.00 84 1028.9
20230208074516 42 204 1.0 9.0 0.00 0.00 0.00 84 1028.8
20230208073013 42 246 1.0 6.0 0.00 0.00 0.00 84 1028.7
20230208071518 43 265 2.0 6.0 0.00 0.00 0.00 83 1028.5
20230208070015 43 262 1.0 4.0 0.00 0.00 0.00 83 1028.5
20230208064513 43 266 1.0 4.0 0.00 0.00 0.00 83 1028.4
20230208063008 43 252 0.0 4.0 0.00 0.00 0.00 83 1028.2
20230208061507 43 245 1.0 4.0 0.00 0.00 0.00 84 1028.0
20230208060014 42 238 0.0 3.0 0.00 0.00 0.00 84 1027.8
20230208054504 43 257 2.0 5.0 0.00 0.00 0.00 84 1027.6
20230208053005 43 259 1.0 4.0 0.00 0.00 0.00 85 1027.5
20230208051505 43 245 1.0 4.0 0.00 0.00 0.00 86 1027.3
20230208050101 43 239 1.0 6.0 0.00 0.00 0.00 86 1027.2
20230208044603 43 261 2.0 7.0 0.00 0.00 0.00 86 1027.0
20230208043159 43 260 0.0 5.0 0.00 0.00 0.00 86 1026.9
20230208041558 43 261 0.0 4.0 0.00 0.00 0.00 87 1026.7
20230208040056 43 252 1.0 4.0 0.00 0.00 0.00 86 1026.4
20230208034609 43 240 1.0 4.0 0.00 0.00 0.00 86 1026.3
20230208033101 43 167 1.0 3.0 0.00 0.00 0.00 87 1026.1
20230208031553 43 203 0.0 2.0 0.00 0.00 0.00 86 1025.9
20230208030057 44 227 0.0 2.0 0.00 0.00 0.00 85 1025.7
20230208024559 44 249 0.0 1.0 0.00 0.00 0.00 84 1025.6
20230208023051 45 250 0.0 1.0 0.00 0.00 0.00 84 1025.5
20230208021553 45 271 0.0 2.0 0.00 0.00 0.00 83 1025.2
20230208020051 46 266 3.0 7.0 0.00 0.00 0.00 83 1024.8
20230208014556 47 269 1.0 3.0 0.00 0.00 0.00 86 1024.6
20230208013058 48 270 0.0 5.0 0.00 0.00 0.00 86 1024.3
20230208011548 48 273 0.0 2.0 0.00 0.00 0.00 87 1024.2
20230208010049 48 259 0.0 6.0 0.00 0.00 0.00 87 1023.9
20230208004547 48 264 0.0 2.0 0.00 0.00 0.00 88 1024.0
20230208003046 48 236 0.0 2.0 0.00 0.00 0.00 88 1023.9
20230208001546 48 231 2.0 5.0 0.00 0.00 0.00 88 1023.7
20230208000049 48 269 1.0 5.0 0.00 0.00 0.00 88 1023.5
20230207234550 48 253 1.0 8.0 0.00 0.00 0.00 90 1023.1
20230207233051 47 278 1.0 7.0 0.00 0.00 0.00 90 1022.8
20230207231544 47 295 1.0 10.0 0.00 0.00 0.00 90 1022.7
20230207230043 47 281 2.0 10.0 0.00 0.00 0.00 90 1022.7
20230207224542 47 274 4.0 14.0 0.00 0.00 0.00 90 1022.4
20230207223045 48 233 4.0 14.0 0.00 0.00 0.00 88 1022.2
20230207221540 49 259 3.0 12.0 0.00 0.00 0.00 87 1021.8
20230207220038 49 202 2.0 9.0 0.00 0.00 0.00 87 1021.7
20230207214538 48 224 3.0 12.0 0.00 0.00 0.00 88 1021.6
20230207213048 48 212 4.0 10.0 0.00 0.00 0.00 88 1021.8
20230207211633 48 268 3.0 11.0 0.00 0.00 0.00 87 1021.9
20230207210045 48 278 5.0 13.0 0.00 0.00 0.00 85 1022.2
20230207204532 48 214 1.0 8.0 0.00 0.00 0.00 86 1022.4
20230207203026 48 154 2.0 12.0 0.00 0.00 0.00 86 1022.6
20230207201523 47 275 2.0 7.0 0.00 0.00 0.00 87 1022.8
20230207200022 47 262 3.0 7.0 0.00 0.00 0.00 87 1022.8
20230207194518 46 231 1.0 11.0 0.00 0.00 0.00 88 1023.2